sensor_id;sensor_type;location;lat;lon;timestamp;P1;durP1;ratioP1;P2;durP2;ratioP2
22240;SDS011;11289;52.524;13.694;2023-04-23T00:00:52;12.57;;;11.05;;
22240;SDS011;11289;52.524;13.694;2023-04-23T00:03:22;11.95;;;10.70;;
22240;SDS011;11289;52.524;13.694;2023-04-23T00:05:50;15.05;;;10.95;;
22240;SDS011;11289;52.524;13.694;2023-04-23T00:08:17;14.80;;;11.35;;
22240;SDS011;11289;52.524;13.694;2023-04-23T00:10:43;12.93;;;11.55;;
22240;SDS011;11289;52.524;13.694;2023-04-23T00:13:10;13.95;;;11.70;;
22240;SDS011;11289;52.524;13.694;2023-04-23T00:15:36;16.13;;;12.65;;
22240;SDS011;11289;52.524;13.694;2023-04-23T00:18:02;11.77;;;10.57;;
22240;SDS011;11289;52.524;13.694;2023-04-23T00:20:28;13.48;;;11.32;;
22240;SDS011;11289;52.524;13.694;2023-04-23T00:22:54;13.65;;;10.85;;
22240;SDS011;11289;52.524;13.694;2023-04-23T00:25:20;15.60;;;13.07;;
22240;SDS011;11289;52.524;13.694;2023-04-23T00:27:46;17.25;;;13.52;;
22240;SDS011;11289;52.524;13.694;2023-04-23T00:30:12;16.50;;;13.57;;
22240;SDS011;11289;52.524;13.694;2023-04-23T00:32:38;13.00;;;10.13;;
22240;SDS011;11289;52.524;13.694;2023-04-23T00:35:05;11.00;;;9.55;;
22240;SDS011;11289;52.524;13.694;2023-04-23T00:37:31;11.35;;;9.43;;
22240;SDS011;11289;52.524;13.694;2023-04-23T00:39:57;10.60;;;9.50;;
22240;SDS011;11289;52.524;13.694;2023-04-23T00:42:23;13.73;;;9.82;;
22240;SDS011;11289;52.524;13.694;2023-04-23T00:44:49;14.80;;;10.18;;
22240;SDS011;11289;52.524;13.694;2023-04-23T00:47:16;12.60;;;10.63;;
22240;SDS011;11289;52.524;13.694;2023-04-23T00:49:42;11.88;;;10.65;;
22240;SDS011;11289;52.524;13.694;2023-04-23T00:52:08;13.55;;;10.00;;
22240;SDS011;11289;52.524;13.694;2023-04-23T00:54:34;13.80;;;9.93;;
22240;SDS011;11289;52.524;13.694;2023-04-23T00:57:00;18.60;;;13.65;;
22240;SDS011;11289;52.524;13.694;2023-04-23T00:59:28;12.65;;;11.32;;
22240;SDS011;11289;52.524;13.694;2023-04-23T01:01:56;10.88;;;9.45;;
22240;SDS011;11289;52.524;13.694;2023-04-23T01:04:23;14.00;;;9.98;;
22240;SDS011;11289;52.524;13.694;2023-04-23T01:06:52;13.90;;;9.95;;
22240;SDS011;11289;52.524;13.694;2023-04-23T01:09:19;11.45;;;9.70;;
22240;SDS011;11289;52.524;13.694;2023-04-23T01:11:45;12.52;;;9.75;;
22240;SDS011;11289;52.524;13.694;2023-04-23T01:14:11;13.05;;;9.95;;
22240;SDS011;11289;52.524;13.694;2023-04-23T01:16:37;11.07;;;9.40;;
22240;SDS011;11289;52.524;13.694;2023-04-23T01:19:07;14.75;;;9.68;;
22240;SDS011;11289;52.524;13.694;2023-04-23T01:21:34;11.52;;;9.40;;
22240;SDS011;11289;52.524;13.694;2023-04-23T01:24:02;11.20;;;9.18;;
22240;SDS011;11289;52.524;13.694;2023-04-23T01:26:30;12.15;;;10.35;;
22240;SDS011;11289;52.524;13.694;2023-04-23T01:28:56;12.23;;;9.75;;
22240;SDS011;11289;52.524;13.694;2023-04-23T01:31:24;13.48;;;9.27;;
22240;SDS011;11289;52.524;13.694;2023-04-23T01:33:51;14.38;;;10.02;;
22240;SDS011;11289;52.524;13.694;2023-04-23T01:36:18;12.95;;;9.77;;
22240;SDS011;11289;52.524;13.694;2023-04-23T01:38:44;11.10;;;9.27;;
22240;SDS011;11289;52.524;13.694;2023-04-23T01:41:11;11.68;;;8.77;;
22240;SDS011;11289;52.524;13.694;2023-04-23T01:43:37;14.30;;;9.50;;
22240;SDS011;11289;52.524;13.694;2023-04-23T01:46:04;20.08;;;9.90;;
22240;SDS011;11289;52.524;13.694;2023-04-23T01:48:30;13.63;;;10.45;;
22240;SDS011;11289;52.524;13.694;2023-04-23T01:50:56;13.68;;;10.43;;
22240;SDS011;11289;52.524;13.694;2023-04-23T01:53:23;12.35;;;9.38;;
22240;SDS011;11289;52.524;13.694;2023-04-23T01:55:48;13.13;;;10.57;;
22240;SDS011;11289;52.524;13.694;2023-04-23T01:58:16;9.52;;;8.52;;
22240;SDS011;11289;52.524;13.694;2023-04-23T02:00:43;10.25;;;8.93;;
22240;SDS011;11289;52.524;13.694;2023-04-23T02:03:10;11.05;;;8.70;;
22240;SDS011;11289;52.524;13.694;2023-04-23T02:05:35;11.18;;;9.20;;
22240;SDS011;11289;52.524;13.694;2023-04-23T02:08:05;12.48;;;9.27;;
22240;SDS011;11289;52.524;13.694;2023-04-23T02:10:31;11.18;;;9.73;;
22240;SDS011;11289;52.524;13.694;2023-04-23T02:12:57;10.55;;;9.45;;
22240;SDS011;11289;52.524;13.694;2023-04-23T02:15:24;12.00;;;10.15;;
22240;SDS011;11289;52.524;13.694;2023-04-23T02:17:50;11.32;;;9.23;;
22240;SDS011;11289;52.524;13.694;2023-04-23T02:20:17;12.02;;;9.82;;
22240;SDS011;11289;52.524;13.694;2023-04-23T02:22:44;11.80;;;9.30;;
22240;SDS011;11289;52.524;13.694;2023-04-23T02:25:10;12.70;;;10.00;;
22240;SDS011;11289;52.524;13.694;2023-04-23T02:27:36;13.02;;;9.93;;
22240;SDS011;11289;52.524;13.694;2023-04-23T02:30:02;15.88;;;10.02;;
22240;SDS011;11289;52.524;13.694;2023-04-23T02:32:29;11.57;;;9.65;;
22240;SDS011;11289;52.524;13.694;2023-04-23T02:34:55;10.52;;;8.63;;
22240;SDS011;11289;52.524;13.694;2023-04-23T02:37:23;13.07;;;10.02;;
22240;SDS011;11289;52.524;13.694;2023-04-23T02:39:49;12.65;;;10.32;;
22240;SDS011;11289;52.524;13.694;2023-04-23T02:42:15;15.30;;;10.27;;
22240;SDS011;11289;52.524;13.694;2023-04-23T02:44:41;11.95;;;9.75;;
22240;SDS011;11289;52.524;13.694;2023-04-23T02:47:07;10.85;;;9.05;;
22240;SDS011;11289;52.524;13.694;2023-04-23T02:49:33;11.40;;;9.30;;
22240;SDS011;11289;52.524;13.694;2023-04-23T02:51:59;14.55;;;9.93;;
22240;SDS011;11289;52.524;13.694;2023-04-23T02:54:25;15.38;;;10.25;;
22240;SDS011;11289;52.524;13.694;2023-04-23T02:56:51;14.75;;;9.65;;
22240;SDS011;11289;52.524;13.694;2023-04-23T02:59:17;11.80;;;9.63;;
22240;SDS011;11289;52.524;13.694;2023-04-23T03:01:43;11.52;;;9.50;;
22240;SDS011;11289;52.524;13.694;2023-04-23T03:04:09;15.82;;;9.85;;
22240;SDS011;11289;52.524;13.694;2023-04-23T03:06:36;10.57;;;9.30;;
22240;SDS011;11289;52.524;13.694;2023-04-23T03:09:02;14.43;;;10.32;;
22240;SDS011;11289;52.524;13.694;2023-04-23T03:11:29;13.50;;;10.70;;
22240;SDS011;11289;52.524;13.694;2023-04-23T03:13:55;12.85;;;11.18;;
22240;SDS011;11289;52.524;13.694;2023-04-23T03:16:21;15.13;;;11.23;;
22240;SDS011;11289;52.524;13.694;2023-04-23T03:18:47;14.18;;;11.27;;
22240;SDS011;11289;52.524;13.694;2023-04-23T03:21:13;14.57;;;10.43;;
22240;SDS011;11289;52.524;13.694;2023-04-23T03:23:39;13.38;;;11.15;;
22240;SDS011;11289;52.524;13.694;2023-04-23T03:26:05;12.07;;;10.68;;
22240;SDS011;11289;52.524;13.694;2023-04-23T03:28:31;13.15;;;11.65;;
22240;SDS011;11289;52.524;13.694;2023-04-23T03:30:57;15.40;;;11.30;;
22240;SDS011;11289;52.524;13.694;2023-04-23T03:33:23;13.25;;;11.20;;
22240;SDS011;11289;52.524;13.694;2023-04-23T03:35:49;13.25;;;10.88;;
22240;SDS011;11289;52.524;13.694;2023-04-23T03:38:16;16.63;;;11.70;;
22240;SDS011;11289;52.524;13.694;2023-04-23T03:40:42;13.88;;;11.80;;
22240;SDS011;11289;52.524;13.694;2023-04-23T03:43:08;16.15;;;12.00;;
22240;SDS011;11289;52.524;13.694;2023-04-23T03:45:34;16.15;;;12.68;;
22240;SDS011;11289;52.524;13.694;2023-04-23T03:48:00;15.50;;;11.75;;
22240;SDS011;11289;52.524;13.694;2023-04-23T03:50:26;15.95;;;12.02;;
22240;SDS011;11289;52.524;13.694;2023-04-23T03:52:52;13.20;;;11.10;;
22240;SDS011;11289;52.524;13.694;2023-04-23T03:55:18;13.50;;;10.85;;
22240;SDS011;11289;52.524;13.694;2023-04-23T03:57:45;18.08;;;12.30;;
22240;SDS011;11289;52.524;13.694;2023-04-23T04:00:11;14.73;;;10.98;;
22240;SDS011;11289;52.524;13.694;2023-04-23T04:02:38;14.82;;;11.88;;
22240;SDS011;11289;52.524;13.694;2023-04-23T04:05:04;14.75;;;11.98;;
22240;SDS011;11289;52.524;13.694;2023-04-23T04:07:31;14.50;;;11.85;;
22240;SDS011;11289;52.524;13.694;2023-04-23T04:09:58;13.75;;;11.68;;
22240;SDS011;11289;52.524;13.694;2023-04-23T04:12:24;15.50;;;11.18;;
22240;SDS011;11289;52.524;13.694;2023-04-23T04:14:50;15.82;;;12.00;;
22240;SDS011;11289;52.524;13.694;2023-04-23T04:17:16;19.05;;;12.73;;
22240;SDS011;11289;52.524;13.694;2023-04-23T04:19:42;13.70;;;11.38;;
22240;SDS011;11289;52.524;13.694;2023-04-23T04:22:08;15.60;;;11.30;;
22240;SDS011;11289;52.524;13.694;2023-04-23T04:24:34;17.20;;;11.63;;
22240;SDS011;11289;52.524;13.694;2023-04-23T04:27:00;13.98;;;11.52;;
22240;SDS011;11289;52.524;13.694;2023-04-23T04:29:26;12.52;;;10.23;;
22240;SDS011;11289;52.524;13.694;2023-04-23T04:31:53;14.57;;;11.27;;
22240;SDS011;11289;52.524;13.694;2023-04-23T04:34:19;14.80;;;11.07;;
22240;SDS011;11289;52.524;13.694;2023-04-23T04:36:45;14.50;;;11.35;;
22240;SDS011;11289;52.524;13.694;2023-04-23T04:39:12;15.55;;;12.18;;
22240;SDS011;11289;52.524;13.694;2023-04-23T04:41:40;12.63;;;11.18;;
22240;SDS011;11289;52.524;13.694;2023-04-23T04:44:07;13.60;;;12.20;;
22240;SDS011;11289;52.524;13.694;2023-04-23T04:46:33;18.40;;;11.93;;
22240;SDS011;11289;52.524;13.694;2023-04-23T04:49:13;12.52;;;11.00;;
22240;SDS011;11289;52.524;13.694;2023-04-23T04:51:39;17.00;;;14.57;;
22240;SDS011;11289;52.524;13.694;2023-04-23T04:54:06;28.27;;;19.65;;
22240;SDS011;11289;52.524;13.694;2023-04-23T04:56:33;24.63;;;18.98;;
22240;SDS011;11289;52.524;13.694;2023-04-23T04:58:59;21.65;;;17.83;;
22240;SDS011;11289;52.524;13.694;2023-04-23T05:01:26;22.85;;;17.35;;
22240;SDS011;11289;52.524;13.694;2023-04-23T05:03:56;17.95;;;15.23;;
22240;SDS011;11289;52.524;13.694;2023-04-23T05:06:22;24.05;;;17.92;;
22240;SDS011;11289;52.524;13.694;2023-04-23T05:08:48;17.90;;;14.85;;
22240;SDS011;11289;52.524;13.694;2023-04-23T05:11:15;19.23;;;16.77;;
22240;SDS011;11289;52.524;13.694;2023-04-23T05:13:44;19.95;;;14.57;;
22240;SDS011;11289;52.524;13.694;2023-04-23T05:16:11;16.33;;;14.15;;
22240;SDS011;11289;52.524;13.694;2023-04-23T05:18:38;16.77;;;13.88;;
22240;SDS011;11289;52.524;13.694;2023-04-23T05:21:05;17.13;;;13.98;;
22240;SDS011;11289;52.524;13.694;2023-04-23T05:23:32;16.23;;;14.52;;
22240;SDS011;11289;52.524;13.694;2023-04-23T05:25:58;16.10;;;12.60;;
22240;SDS011;11289;52.524;13.694;2023-04-23T05:28:25;13.80;;;12.35;;
22240;SDS011;11289;52.524;13.694;2023-04-23T05:30:51;13.20;;;11.80;;
22240;SDS011;11289;52.524;13.694;2023-04-23T05:33:17;17.13;;;13.15;;
22240;SDS011;11289;52.524;13.694;2023-04-23T05:35:43;14.25;;;11.23;;
22240;SDS011;11289;52.524;13.694;2023-04-23T05:38:09;15.50;;;11.95;;
22240;SDS011;11289;52.524;13.694;2023-04-23T05:40:35;16.40;;;13.05;;
22240;SDS011;11289;52.524;13.694;2023-04-23T05:43:01;12.70;;;11.38;;
22240;SDS011;11289;52.524;13.694;2023-04-23T05:45:27;15.27;;;12.73;;
22240;SDS011;11289;52.524;13.694;2023-04-23T05:47:53;16.98;;;12.75;;
22240;SDS011;11289;52.524;13.694;2023-04-23T05:50:19;13.27;;;11.50;;
22240;SDS011;11289;52.524;13.694;2023-04-23T05:52:45;13.50;;;11.63;;
22240;SDS011;11289;52.524;13.694;2023-04-23T05:55:12;13.40;;;11.20;;
22240;SDS011;11289;52.524;13.694;2023-04-23T05:57:40;12.23;;;10.85;;
22240;SDS011;11289;52.524;13.694;2023-04-23T06:00:06;13.65;;;11.48;;
22240;SDS011;11289;52.524;13.694;2023-04-23T06:02:36;13.20;;;11.77;;
22240;SDS011;11289;52.524;13.694;2023-04-23T06:05:03;15.32;;;11.02;;
22240;SDS011;11289;52.524;13.694;2023-04-23T06:07:30;13.38;;;11.70;;
22240;SDS011;11289;52.524;13.694;2023-04-23T06:09:57;13.18;;;11.57;;
22240;SDS011;11289;52.524;13.694;2023-04-23T06:12:23;13.38;;;11.38;;
22240;SDS011;11289;52.524;13.694;2023-04-23T06:14:49;15.45;;;12.25;;
22240;SDS011;11289;52.524;13.694;2023-04-23T06:17:16;15.32;;;10.43;;
22240;SDS011;11289;52.524;13.694;2023-04-23T06:19:42;14.18;;;11.48;;
22240;SDS011;11289;52.524;13.694;2023-04-23T06:22:08;14.23;;;10.63;;
22240;SDS011;11289;52.524;13.694;2023-04-23T06:24:34;14.32;;;12.05;;
22240;SDS011;11289;52.524;13.694;2023-04-23T06:27:00;12.85;;;11.10;;
22240;SDS011;11289;52.524;13.694;2023-04-23T06:29:27;12.68;;;11.00;;
22240;SDS011;11289;52.524;13.694;2023-04-23T06:31:54;15.63;;;11.02;;
22240;SDS011;11289;52.524;13.694;2023-04-23T06:34:21;14.27;;;11.55;;
22240;SDS011;11289;52.524;13.694;2023-04-23T06:36:49;14.30;;;12.13;;
22240;SDS011;11289;52.524;13.694;2023-04-23T06:39:15;12.57;;;10.55;;
22240;SDS011;11289;52.524;13.694;2023-04-23T06:41:41;12.25;;;11.00;;
22240;SDS011;11289;52.524;13.694;2023-04-23T06:44:07;11.85;;;10.68;;
22240;SDS011;11289;52.524;13.694;2023-04-23T06:46:33;11.65;;;10.45;;
22240;SDS011;11289;52.524;13.694;2023-04-23T06:48:59;12.15;;;10.57;;
22240;SDS011;11289;52.524;13.694;2023-04-23T06:51:25;11.88;;;10.38;;
22240;SDS011;11289;52.524;13.694;2023-04-23T06:53:56;11.73;;;10.38;;
22240;SDS011;11289;52.524;13.694;2023-04-23T06:56:23;11.98;;;10.43;;
22240;SDS011;11289;52.524;13.694;2023-04-23T06:58:50;13.02;;;10.70;;
22240;SDS011;11289;52.524;13.694;2023-04-23T07:01:16;11.15;;;9.93;;
22240;SDS011;11289;52.524;13.694;2023-04-23T07:03:44;15.13;;;10.00;;
22240;SDS011;11289;52.524;13.694;2023-04-23T07:06:16;13.23;;;10.18;;
22240;SDS011;11289;52.524;13.694;2023-04-23T07:08:42;11.63;;;10.07;;
22240;SDS011;11289;52.524;13.694;2023-04-23T07:11:09;12.07;;;9.50;;
22240;SDS011;11289;52.524;13.694;2023-04-23T07:13:36;13.05;;;9.90;;
22240;SDS011;11289;52.524;13.694;2023-04-23T07:16:02;11.75;;;9.80;;
22240;SDS011;11289;52.524;13.694;2023-04-23T07:18:28;11.15;;;9.27;;
22240;SDS011;11289;52.524;13.694;2023-04-23T07:20:54;10.57;;;9.48;;
22240;SDS011;11289;52.524;13.694;2023-04-23T07:23:20;11.50;;;10.30;;
22240;SDS011;11289;52.524;13.694;2023-04-23T07:25:46;10.80;;;9.10;;
22240;SDS011;11289;52.524;13.694;2023-04-23T07:28:12;10.68;;;9.02;;
22240;SDS011;11289;52.524;13.694;2023-04-23T07:30:38;15.35;;;9.85;;
22240;SDS011;11289;52.524;13.694;2023-04-23T07:33:04;11.70;;;9.00;;
22240;SDS011;11289;52.524;13.694;2023-04-23T07:35:31;12.32;;;9.43;;
22240;SDS011;11289;52.524;13.694;2023-04-23T07:37:57;11.25;;;9.68;;
22240;SDS011;11289;52.524;13.694;2023-04-23T07:40:23;13.40;;;9.55;;
22240;SDS011;11289;52.524;13.694;2023-04-23T07:42:50;12.02;;;10.70;;
22240;SDS011;11289;52.524;13.694;2023-04-23T07:45:17;14.35;;;12.88;;
22240;SDS011;11289;52.524;13.694;2023-04-23T07:47:43;95.32;;;86.07;;
22240;SDS011;11289;52.524;13.694;2023-04-23T07:50:11;52.97;;;47.25;;
22240;SDS011;11289;52.524;13.694;2023-04-23T07:52:37;20.27;;;17.98;;
22240;SDS011;11289;52.524;13.694;2023-04-23T07:55:04;94.80;;;82.60;;
22240;SDS011;11289;52.524;13.694;2023-04-23T07:57:30;74.40;;;60.30;;
22240;SDS011;11289;52.524;13.694;2023-04-23T07:59:56;28.88;;;22.10;;
22240;SDS011;11289;52.524;13.694;2023-04-23T08:02:22;15.82;;;13.15;;
22240;SDS011;11289;52.524;13.694;2023-04-23T08:04:51;17.50;;;15.68;;
22240;SDS011;11289;52.524;13.694;2023-04-23T08:07:17;16.88;;;12.45;;
22240;SDS011;11289;52.524;13.694;2023-04-23T08:09:43;24.00;;;21.50;;
22240;SDS011;11289;52.524;13.694;2023-04-23T08:12:09;17.45;;;15.07;;
22240;SDS011;11289;52.524;13.694;2023-04-23T08:14:35;14.27;;;10.65;;
22240;SDS011;11289;52.524;13.694;2023-04-23T08:17:02;12.82;;;9.10;;
22240;SDS011;11289;52.524;13.694;2023-04-23T08:19:28;14.85;;;9.15;;
22240;SDS011;11289;52.524;13.694;2023-04-23T08:21:56;10.23;;;7.78;;
22240;SDS011;11289;52.524;13.694;2023-04-23T08:24:22;9.80;;;7.75;;
22240;SDS011;11289;52.524;13.694;2023-04-23T08:26:48;8.05;;;7.25;;
22240;SDS011;11289;52.524;13.694;2023-04-23T08:29:14;10.93;;;7.50;;
22240;SDS011;11289;52.524;13.694;2023-04-23T08:31:40;8.63;;;6.88;;
22240;SDS011;11289;52.524;13.694;2023-04-23T08:34:06;9.40;;;7.15;;
22240;SDS011;11289;52.524;13.694;2023-04-23T08:36:32;7.88;;;6.75;;
22240;SDS011;11289;52.524;13.694;2023-04-23T08:38:58;12.38;;;8.00;;
22240;SDS011;11289;52.524;13.694;2023-04-23T08:41:26;10.40;;;7.70;;
22240;SDS011;11289;52.524;13.694;2023-04-23T08:46:36;11.73;;;10.00;;
22240;SDS011;11289;52.524;13.694;2023-04-23T08:49:07;12.35;;;9.77;;
22240;SDS011;11289;52.524;13.694;2023-04-23T08:51:54;11.63;;;9.73;;
22240;SDS011;11289;52.524;13.694;2023-04-23T08:54:28;9.32;;;7.97;;
22240;SDS011;11289;52.524;13.694;2023-04-23T08:56:59;11.95;;;8.15;;
22240;SDS011;11289;52.524;13.694;2023-04-23T08:59:28;10.77;;;8.05;;
22240;SDS011;11289;52.524;13.694;2023-04-23T09:01:55;9.57;;;7.82;;
22240;SDS011;11289;52.524;13.694;2023-04-23T09:04:22;10.88;;;7.57;;
22240;SDS011;11289;52.524;13.694;2023-04-23T09:06:50;11.52;;;8.82;;
22240;SDS011;11289;52.524;13.694;2023-04-23T09:09:16;10.65;;;8.13;;
22240;SDS011;11289;52.524;13.694;2023-04-23T09:11:44;12.48;;;8.90;;
22240;SDS011;11289;52.524;13.694;2023-04-23T09:14:11;14.45;;;10.07;;
22240;SDS011;11289;52.524;13.694;2023-04-23T09:16:37;12.98;;;10.32;;
22240;SDS011;11289;52.524;13.694;2023-04-23T09:19:06;10.07;;;9.07;;
22240;SDS011;11289;52.524;13.694;2023-04-23T09:21:37;10.55;;;9.40;;
22240;SDS011;11289;52.524;13.694;2023-04-23T09:24:04;11.05;;;8.40;;
22240;SDS011;11289;52.524;13.694;2023-04-23T09:26:30;9.93;;;8.57;;
22240;SDS011;11289;52.524;13.694;2023-04-23T09:28:56;10.25;;;8.25;;
22240;SDS011;11289;52.524;13.694;2023-04-23T09:31:22;7.63;;;6.60;;
22240;SDS011;11289;52.524;13.694;2023-04-23T09:33:52;8.18;;;7.20;;
22240;SDS011;11289;52.524;13.694;2023-04-23T09:36:19;10.38;;;8.45;;
22240;SDS011;11289;52.524;13.694;2023-04-23T09:38:48;11.35;;;7.88;;
22240;SDS011;11289;52.524;13.694;2023-04-23T09:43:55;10.95;;;8.70;;
22240;SDS011;11289;52.524;13.694;2023-04-23T09:46:38;8.25;;;7.40;;
22240;SDS011;11289;52.524;13.694;2023-04-23T09:49:06;10.75;;;8.30;;
22240;SDS011;11289;52.524;13.694;2023-04-23T09:51:37;9.30;;;8.00;;
22240;SDS011;11289;52.524;13.694;2023-04-23T09:54:10;9.30;;;8.32;;
22240;SDS011;11289;52.524;13.694;2023-04-23T09:56:51;10.38;;;9.27;;
22240;SDS011;11289;52.524;13.694;2023-04-23T09:59:22;11.02;;;8.35;;
22240;SDS011;11289;52.524;13.694;2023-04-23T10:01:50;9.35;;;8.25;;
22240;SDS011;11289;52.524;13.694;2023-04-23T10:04:17;11.32;;;7.95;;
22240;SDS011;11289;52.524;13.694;2023-04-23T10:06:47;9.05;;;8.15;;
22240;SDS011;11289;52.524;13.694;2023-04-23T10:09:13;12.55;;;8.98;;
22240;SDS011;11289;52.524;13.694;2023-04-23T10:11:39;9.52;;;8.02;;
22240;SDS011;11289;52.524;13.694;2023-04-23T10:14:06;9.40;;;8.40;;
22240;SDS011;11289;52.524;13.694;2023-04-23T10:16:33;8.65;;;7.70;;
22240;SDS011;11289;52.524;13.694;2023-04-23T10:19:01;10.52;;;7.18;;
22240;SDS011;11289;52.524;13.694;2023-04-23T10:21:28;8.98;;;7.40;;
22240;SDS011;11289;52.524;13.694;2023-04-23T10:23:56;7.78;;;6.97;;
22240;SDS011;11289;52.524;13.694;2023-04-23T10:26:26;7.28;;;5.85;;
22240;SDS011;11289;52.524;13.694;2023-04-23T10:28:53;5.50;;;4.93;;
22240;SDS011;11289;52.524;13.694;2023-04-23T10:31:21;3.92;;;3.53;;
22240;SDS011;11289;52.524;13.694;2023-04-23T10:33:47;3.80;;;3.50;;
22240;SDS011;11289;52.524;13.694;2023-04-23T10:36:16;4.82;;;3.88;;
22240;SDS011;11289;52.524;13.694;2023-04-23T10:38:42;7.85;;;3.97;;
22240;SDS011;11289;52.524;13.694;2023-04-23T10:41:09;4.25;;;2.88;;
22240;SDS011;11289;52.524;13.694;2023-04-23T10:43:37;3.67;;;3.20;;
22240;SDS011;11289;52.524;13.694;2023-04-23T10:46:03;5.40;;;3.40;;
22240;SDS011;11289;52.524;13.694;2023-04-23T10:48:29;5.40;;;3.75;;
22240;SDS011;11289;52.524;13.694;2023-04-23T10:51:15;4.78;;;3.17;;
22240;SDS011;11289;52.524;13.694;2023-04-23T10:53:41;4.97;;;3.42;;
22240;SDS011;11289;52.524;13.694;2023-04-23T10:56:07;3.80;;;2.97;;
22240;SDS011;11289;52.524;13.694;2023-04-23T10:58:47;3.53;;;2.78;;
22240;SDS011;11289;52.524;13.694;2023-04-23T11:01:15;3.45;;;2.95;;
22240;SDS011;11289;52.524;13.694;2023-04-23T11:03:42;3.35;;;2.63;;
22240;SDS011;11289;52.524;13.694;2023-04-23T11:06:11;4.22;;;2.80;;
22240;SDS011;11289;52.524;13.694;2023-04-23T11:08:49;3.58;;;2.75;;
22240;SDS011;11289;52.524;13.694;2023-04-23T11:11:18;2.60;;;2.40;;
22240;SDS011;11289;52.524;13.694;2023-04-23T11:14:08;2.60;;;2.03;;
22240;SDS011;11289;52.524;13.694;2023-04-23T11:16:38;3.58;;;2.17;;
22240;SDS011;11289;52.524;13.694;2023-04-23T11:19:08;2.15;;;1.70;;
22240;SDS011;11289;52.524;13.694;2023-04-23T11:24:34;1.95;;;1.60;;
22240;SDS011;11289;52.524;13.694;2023-04-23T11:27:10;1.73;;;1.30;;
22240;SDS011;11289;52.524;13.694;2023-04-23T11:29:38;2.65;;;1.63;;
22240;SDS011;11289;52.524;13.694;2023-04-23T11:32:07;3.20;;;2.17;;
22240;SDS011;11289;52.524;13.694;2023-04-23T11:34:40;2.53;;;2.00;;
22240;SDS011;11289;52.524;13.694;2023-04-23T11:37:08;2.78;;;2.33;;
22240;SDS011;11289;52.524;13.694;2023-04-23T11:39:36;3.08;;;2.15;;
22240;SDS011;11289;52.524;13.694;2023-04-23T11:42:02;3.47;;;2.53;;
22240;SDS011;11289;52.524;13.694;2023-04-23T11:44:29;2.53;;;1.70;;
22240;SDS011;11289;52.524;13.694;2023-04-23T11:46:58;3.13;;;2.38;;
22240;SDS011;11289;52.524;13.694;2023-04-23T11:49:26;2.40;;;1.83;;
22240;SDS011;11289;52.524;13.694;2023-04-23T11:51:52;4.05;;;2.28;;
22240;SDS011;11289;52.524;13.694;2023-04-23T11:54:18;5.90;;;2.88;;
22240;SDS011;11289;52.524;13.694;2023-04-23T11:56:52;5.32;;;2.85;;
22240;SDS011;11289;52.524;13.694;2023-04-23T11:59:19;4.78;;;3.33;;
22240;SDS011;11289;52.524;13.694;2023-04-23T12:01:46;5.47;;;4.25;;
22240;SDS011;11289;52.524;13.694;2023-04-23T12:04:29;5.03;;;4.35;;
22240;SDS011;11289;52.524;13.694;2023-04-23T12:06:56;5.57;;;4.82;;
22240;SDS011;11289;52.524;13.694;2023-04-23T12:09:24;5.88;;;4.53;;
22240;SDS011;11289;52.524;13.694;2023-04-23T12:11:52;6.63;;;5.38;;
22240;SDS011;11289;52.524;13.694;2023-04-23T12:14:19;7.63;;;4.82;;
22240;SDS011;11289;52.524;13.694;2023-04-23T12:16:52;5.78;;;5.18;;
22240;SDS011;11289;52.524;13.694;2023-04-23T12:19:19;6.07;;;4.95;;
22240;SDS011;11289;52.524;13.694;2023-04-23T12:21:54;5.35;;;4.13;;
22240;SDS011;11289;52.524;13.694;2023-04-23T12:24:25;8.70;;;5.45;;
22240;SDS011;11289;52.524;13.694;2023-04-23T12:26:53;6.68;;;4.72;;
22240;SDS011;11289;52.524;13.694;2023-04-23T12:29:21;6.45;;;5.32;;
22240;SDS011;11289;52.524;13.694;2023-04-23T12:31:48;5.65;;;4.75;;
22240;SDS011;11289;52.524;13.694;2023-04-23T12:34:15;6.68;;;5.50;;
22240;SDS011;11289;52.524;13.694;2023-04-23T12:37:00;7.13;;;5.20;;
22240;SDS011;11289;52.524;13.694;2023-04-23T12:39:32;5.43;;;4.75;;
22240;SDS011;11289;52.524;13.694;2023-04-23T12:41:59;21.88;;;15.73;;
22240;SDS011;11289;52.524;13.694;2023-04-23T12:44:29;9.57;;;6.70;;
22240;SDS011;11289;52.524;13.694;2023-04-23T12:46:57;7.65;;;6.05;;
22240;SDS011;11289;52.524;13.694;2023-04-23T12:49:27;5.68;;;4.55;;
22240;SDS011;11289;52.524;13.694;2023-04-23T12:51:54;11.02;;;8.57;;
22240;SDS011;11289;52.524;13.694;2023-04-23T12:54:26;11.70;;;7.72;;
22240;SDS011;11289;52.524;13.694;2023-04-23T12:56:54;8.27;;;4.78;;
22240;SDS011;11289;52.524;13.694;2023-04-23T12:59:20;4.25;;;3.00;;
22240;SDS011;11289;52.524;13.694;2023-04-23T13:01:46;3.83;;;3.28;;
22240;SDS011;11289;52.524;13.694;2023-04-23T13:04:13;4.47;;;2.63;;
22240;SDS011;11289;52.524;13.694;2023-04-23T13:06:39;4.22;;;3.38;;
22240;SDS011;11289;52.524;13.694;2023-04-23T13:09:06;5.38;;;2.47;;
22240;SDS011;11289;52.524;13.694;2023-04-23T13:11:35;2.70;;;2.10;;
22240;SDS011;11289;52.524;13.694;2023-04-23T13:14:02;2.78;;;2.25;;
22240;SDS011;11289;52.524;13.694;2023-04-23T13:16:29;2.55;;;2.15;;
22240;SDS011;11289;52.524;13.694;2023-04-23T13:18:55;2.85;;;2.33;;
22240;SDS011;11289;52.524;13.694;2023-04-23T13:21:21;3.30;;;2.42;;
22240;SDS011;11289;52.524;13.694;2023-04-23T13:23:48;3.45;;;2.38;;
22240;SDS011;11289;52.524;13.694;2023-04-23T13:26:14;3.38;;;2.65;;
22240;SDS011;11289;52.524;13.694;2023-04-23T13:28:40;3.35;;;2.28;;
22240;SDS011;11289;52.524;13.694;2023-04-23T13:31:07;4.07;;;3.13;;
22240;SDS011;11289;52.524;13.694;2023-04-23T13:33:33;3.00;;;2.17;;
22240;SDS011;11289;52.524;13.694;2023-04-23T13:36:00;3.95;;;1.65;;
22240;SDS011;11289;52.524;13.694;2023-04-23T13:38:27;2.28;;;1.58;;
22240;SDS011;11289;52.524;13.694;2023-04-23T13:40:53;3.17;;;1.77;;
22240;SDS011;11289;52.524;13.694;2023-04-23T13:43:19;1.75;;;1.40;;
22240;SDS011;11289;52.524;13.694;2023-04-23T13:45:45;3.03;;;1.98;;
22240;SDS011;11289;52.524;13.694;2023-04-23T13:48:12;1.92;;;1.45;;
22240;SDS011;11289;52.524;13.694;2023-04-23T13:50:40;2.15;;;1.42;;
22240;SDS011;11289;52.524;13.694;2023-04-23T13:53:07;2.58;;;1.80;;
22240;SDS011;11289;52.524;13.694;2023-04-23T13:55:35;2.20;;;1.50;;
22240;SDS011;11289;52.524;13.694;2023-04-23T13:58:02;2.00;;;1.40;;
22240;SDS011;11289;52.524;13.694;2023-04-23T14:00:28;1.60;;;1.20;;
22240;SDS011;11289;52.524;13.694;2023-04-23T14:02:54;1.88;;;1.33;;
22240;SDS011;11289;52.524;13.694;2023-04-23T14:05:20;5.10;;;1.77;;
22240;SDS011;11289;52.524;13.694;2023-04-23T14:07:46;2.83;;;1.27;;
22240;SDS011;11289;52.524;13.694;2023-04-23T14:10:13;2.17;;;1.30;;
22240;SDS011;11289;52.524;13.694;2023-04-23T14:12:39;1.83;;;1.20;;
22240;SDS011;11289;52.524;13.694;2023-04-23T14:15:06;2.33;;;1.50;;
22240;SDS011;11289;52.524;13.694;2023-04-23T14:17:33;2.58;;;1.38;;
22240;SDS011;11289;52.524;13.694;2023-04-23T14:20:02;4.15;;;1.85;;
22240;SDS011;11289;52.524;13.694;2023-04-23T14:22:30;2.03;;;1.55;;
22240;SDS011;11289;52.524;13.694;2023-04-23T14:25:00;2.25;;;1.63;;
22240;SDS011;11289;52.524;13.694;2023-04-23T14:27:30;7.70;;;5.10;;
22240;SDS011;11289;52.524;13.694;2023-04-23T14:30:00;3.60;;;2.13;;